Time;durP1;ratioP1;P1;durP2;ratioP2;P2;SDS_P1;SDS_P2;PMS_P1;PMS_P2;Temp;Humidity;BMP_temperature;BMP_pressure;BME280_temperature;BME280_humidity;BME280_pressure;Samples;Min_cycle;Max_cycle;Signal;HPM_P1;HPM_P2
2022/03/23 00:02:19;;;;;;;38.95;21.98;;;;;;;;;;6216305;28;20046;-72
2022/03/23 00:05:25;;;;;;;35.50;22.83;;;;;;;;;;6221095;28;20133;-71
2022/03/23 00:08:26;;;;;;;35.40;22.58;;;;;;;;;;6221194;28;20050;-69
2022/03/23 00:11:28;;;;;;;35.97;22.33;;;;;;;;;;6219365;28;20341;-71
2022/03/23 00:14:29;;;;;;;33.97;22.17;;;;;;;;;;6220673;28;20042;-71
2022/03/23 00:17:31;;;;;;;37.47;23.33;;;;;;;;;;6223487;28;20524;-73
2022/03/23 00:20:34;;;;;;;33.15;22.05;;;;;;;;;;6222639;28;20512;-70
2022/03/23 00:23:36;;;;;;;32.15;21.80;;;;;;;;;;6224011;28;20049;-70
2022/03/23 00:26:38;;;;;;;33.92;21.80;;;;;;;;;;6222022;28;20038;-71
2022/03/23 00:29:39;;;;;;;35.20;22.20;;;;;;;;;;6223293;28;20196;-71
2022/03/23 00:32:41;;;;;;;37.50;22.83;;;;;;;;;;6223059;28;20617;-70
2022/03/23 00:35:44;;;;;;;39.63;23.05;;;;;;;;;;6223578;28;20103;-71
2022/03/23 00:38:45;;;;;;;35.17;22.70;;;;;;;;;;6218857;28;20098;-70
2022/03/23 00:41:49;;;;;;;36.75;21.85;;;;;;;;;;6221717;28;20192;-71
2022/03/23 00:44:51;;;;;;;35.67;21.63;;;;;;;;;;6221937;28;20058;-70
2022/03/23 00:47:53;;;;;;;33.88;21.20;;;;;;;;;;6222544;28;20054;-69
2022/03/23 00:50:56;;;;;;;34.75;20.85;;;;;;;;;;6220742;28;20127;-71
2022/03/23 00:53:58;;;;;;;34.05;21.58;;;;;;;;;;6220976;28;20129;-70
2022/03/23 00:56:59;;;;;;;38.35;22.60;;;;;;;;;;6219480;28;20172;-70
2022/03/23 01:00:01;;;;;;;37.47;21.40;;;;;;;;;;6220636;28;20608;-71
2022/03/23 01:03:02;;;;;;;31.67;21.08;;;;;;;;;;6221549;28;20489;-70
2022/03/23 01:06:05;;;;;;;37.90;21.50;;;;;;;;;;6221052;28;20046;-70
2022/03/23 01:09:07;;;;;;;34.40;21.88;;;;;;;;;;6222006;28;20120;-71
2022/03/23 01:12:10;;;;;;;34.10;20.98;;;;;;;;;;6220255;28;20107;-71
2022/03/23 01:15:14;;;;;;;35.50;21.83;;;;;;;;;;6220752;28;20493;-70
2022/03/23 01:18:15;;;;;;;33.13;20.73;;;;;;;;;;6219489;28;20045;-71
2022/03/23 01:21:18;;;;;;;33.05;20.80;;;;;;;;;;6219813;28;20168;-70
2022/03/23 01:24:20;;;;;;;37.22;20.83;;;;;;;;;;6220545;28;20046;-69
2022/03/23 01:27:22;;;;;;;32.45;20.83;;;;;;;;;;6220931;28;20408;-71
2022/03/23 01:30:24;;;;;;;31.95;21.40;;;;;;;;;;6220098;28;20604;-70
2022/03/23 01:33:25;;;;;;;31.48;19.92;;;;;;;;;;6219711;28;20057;-71
2022/03/23 01:36:29;;;;;;;28.30;19.60;;;;;;;;;;6220806;28;20045;-71
2022/03/23 01:39:30;;;;;;;35.47;20.13;;;;;;;;;;6221151;28;20049;-70
2022/03/23 01:42:32;;;;;;;32.72;20.77;;;;;;;;;;6220867;28;20045;-70
2022/03/23 01:45:33;;;;;;;30.52;19.67;;;;;;;;;;6220815;28;20136;-71
2022/03/23 01:48:35;;;;;;;30.42;19.23;;;;;;;;;;6220182;28;20156;-70
2022/03/23 01:51:38;;;;;;;29.02;19.35;;;;;;;;;;6221816;28;20416;-70
2022/03/23 01:54:40;;;;;;;31.45;18.77;;;;;;;;;;6219540;28;20620;-71
2022/03/23 01:57:45;;;;;;;29.80;19.65;;;;;;;;;;6222859;28;20046;-71
2022/03/23 02:00:46;;;;;;;29.05;18.52;;;;;;;;;;6223931;28;20068;-71
2022/03/23 02:03:48;;;;;;;31.95;18.80;;;;;;;;;;6225439;28;20424;-70
2022/03/23 02:06:52;;;;;;;32.60;19.90;;;;;;;;;;6224962;28;20042;-70
2022/03/23 02:09:54;;;;;;;35.10;18.45;;;;;;;;;;6225615;28;20046;-70
2022/03/23 02:12:56;;;;;;;26.02;18.10;;;;;;;;;;6226931;28;20107;-71
2022/03/23 02:15:58;;;;;;;30.83;18.55;;;;;;;;;;6225974;28;20041;-69
2022/03/23 02:18:59;;;;;;;29.52;17.85;;;;;;;;;;6224317;28;20050;-70
2022/03/23 02:22:03;;;;;;;28.55;18.35;;;;;;;;;;6224292;28;20042;-69
2022/03/23 02:25:06;;;;;;;28.63;17.48;;;;;;;;;;6224825;28;20120;-69
2022/03/23 02:28:08;;;;;;;28.60;18.38;;;;;;;;;;6225024;28;20053;-69
2022/03/23 02:31:11;;;;;;;25.65;17.65;;;;;;;;;;6225992;28;20488;-71
2022/03/23 02:34:13;;;;;;;28.13;18.05;;;;;;;;;;6223312;28;20046;-69
2022/03/23 02:37:16;;;;;;;27.55;18.27;;;;;;;;;;6223294;28;20381;-69
2022/03/23 02:40:18;;;;;;;33.17;19.73;;;;;;;;;;6222703;28;20535;-69
2022/03/23 02:43:19;;;;;;;26.48;17.75;;;;;;;;;;6224348;28;20493;-70
2022/03/23 02:46:21;;;;;;;26.92;17.27;;;;;;;;;;6223767;28;20168;-70
2022/03/23 02:49:23;;;;;;;28.02;16.67;;;;;;;;;;6225216;28;20077;-69
2022/03/23 02:52:27;;;;;;;29.00;17.83;;;;;;;;;;6223658;28;20448;-68
2022/03/23 03:02:29;;;;;;;27.80;17.25;;;;;;;;;;6222238;28;20038;-70
2022/03/23 03:05:31;;;;;;;27.13;18.10;;;;;;;;;;6221570;28;20062;-70
2022/03/23 03:08:47;;;;;;;30.60;17.35;;;;;;;;;;6221853;28;20515;-69
2022/03/23 03:11:48;;;;;;;28.75;16.95;;;;;;;;;;6219320;28;20049;-70
2022/03/23 03:14:50;;;;;;;28.45;17.80;;;;;;;;;;6224133;28;20149;-68
2022/03/23 03:17:52;;;;;;;27.80;18.08;;;;;;;;;;6224741;28;20073;-70
2022/03/23 03:20:53;;;;;;;27.20;17.50;;;;;;;;;;6224437;28;20416;-70
2022/03/23 03:23:56;;;;;;;31.85;17.58;;;;;;;;;;6224166;28;20120;-69
2022/03/23 03:26:58;;;;;;;26.38;16.75;;;;;;;;;;6224788;28;20049;-70
2022/03/23 03:29:59;;;;;;;27.25;17.40;;;;;;;;;;6223501;28;20551;-69
2022/03/23 03:33:01;;;;;;;27.05;17.30;;;;;;;;;;6223194;28;20176;-70
2022/03/23 03:36:03;;;;;;;28.52;17.00;;;;;;;;;;6224330;28;20050;-70
2022/03/23 03:39:06;;;;;;;26.65;17.90;;;;;;;;;;6224796;28;20088;-69
2022/03/23 03:42:08;;;;;;;31.02;17.60;;;;;;;;;;6223991;28;20132;-71
2022/03/23 03:45:10;;;;;;;29.67;17.75;;;;;;;;;;6223732;28;20513;-70
2022/03/23 03:48:13;;;;;;;28.33;16.52;;;;;;;;;;6223492;28;20129;-72
2022/03/23 03:51:14;;;;;;;26.40;17.27;;;;;;;;;;6225004;28;20176;-70
2022/03/23 03:54:18;;;;;;;29.35;17.42;;;;;;;;;;6224790;28;20112;-70
2022/03/23 03:57:19;;;;;;;28.63;16.67;;;;;;;;;;6225615;28;20054;-70
2022/03/23 04:00:21;;;;;;;27.83;17.20;;;;;;;;;;6225180;28;20042;-70
2022/03/23 04:03:22;;;;;;;26.25;16.38;;;;;;;;;;6225211;28;20528;-70
2022/03/23 04:06:24;;;;;;;29.38;17.77;;;;;;;;;;6224110;28;20179;-70
2022/03/23 04:09:27;;;;;;;26.95;16.83;;;;;;;;;;6225720;28;20054;-69
2022/03/23 04:12:28;;;;;;;29.58;18.52;;;;;;;;;;6225266;28;20050;-70
2022/03/23 04:15:30;;;;;;;28.92;17.58;;;;;;;;;;6224582;28;20126;-70
2022/03/23 04:18:32;;;;;;;28.42;17.52;;;;;;;;;;6223490;28;20531;-70
2022/03/23 04:21:33;;;;;;;34.45;18.27;;;;;;;;;;6224229;28;20103;-71
2022/03/23 04:24:36;;;;;;;32.35;17.60;;;;;;;;;;6223125;28;20490;-70
2022/03/23 04:27:45;;;;;;;34.88;18.88;;;;;;;;;;6222881;28;20060;-70
2022/03/23 04:30:46;;;;;;;31.70;18.55;;;;;;;;;;6222935;28;20176;-69
2022/03/23 04:33:48;;;;;;;35.53;20.30;;;;;;;;;;6223389;28;20062;-70
2022/03/23 04:36:49;;;;;;;32.53;18.60;;;;;;;;;;6223068;28;20085;-70
2022/03/23 04:39:52;;;;;;;33.85;19.52;;;;;;;;;;6223252;28;20099;-70
2022/03/23 04:42:54;;;;;;;34.15;19.67;;;;;;;;;;6222728;28;20448;-70
2022/03/23 04:45:55;;;;;;;35.78;19.92;;;;;;;;;;6224337;28;20065;-69
2022/03/23 04:48:57;;;;;;;31.80;18.88;;;;;;;;;;6225768;28;20069;-69
2022/03/23 04:51:59;;;;;;;40.13;19.45;;;;;;;;;;6224200;28;20048;-70
2022/03/23 04:55:03;;;;;;;31.98;19.65;;;;;;;;;;6223681;28;20054;-70
2022/03/23 04:58:04;;;;;;;36.83;19.17;;;;;;;;;;6221970;28;20096;-71
2022/03/23 05:01:06;;;;;;;37.47;21.10;;;;;;;;;;6225562;28;20095;-69
2022/03/23 05:04:07;;;;;;;36.05;20.00;;;;;;;;;;6223975;28;20052;-69
2022/03/23 05:07:09;;;;;;;36.65;20.55;;;;;;;;;;6224944;28;20050;-70
2022/03/23 05:10:13;;;;;;;33.15;20.73;;;;;;;;;;6225440;28;20050;-70
2022/03/23 05:13:15;;;;;;;33.00;19.33;;;;;;;;;;6226420;28;20103;-69
2022/03/23 05:16:18;;;;;;;37.35;20.85;;;;;;;;;;6223482;28;20052;-70
2022/03/23 05:19:19;;;;;;;38.42;20.67;;;;;;;;;;6224971;28;20100;-71
2022/03/23 05:22:21;;;;;;;39.97;20.15;;;;;;;;;;6222703;28;20161;-70
2022/03/23 05:25:24;;;;;;;33.42;18.60;;;;;;;;;;6224274;28;20153;-70
2022/03/23 05:28:26;;;;;;;38.85;20.42;;;;;;;;;;6223489;28;20087;-70
2022/03/23 05:31:28;;;;;;;36.72;20.40;;;;;;;;;;6226320;28;20058;-70
2022/03/23 05:34:29;;;;;;;41.05;20.13;;;;;;;;;;6227811;28;20042;-70
2022/03/23 05:37:31;;;;;;;34.40;20.17;;;;;;;;;;6226871;28;20056;-70
2022/03/23 05:40:34;;;;;;;35.67;19.38;;;;;;;;;;6228610;28;20056;-70
2022/03/23 05:43:36;;;;;;;34.63;20.83;;;;;;;;;;6229526;28;20188;-70
2022/03/23 05:46:37;;;;;;;36.03;20.13;;;;;;;;;;6227969;28;20132;-70
2022/03/23 05:49:39;;;;;;;41.95;20.83;;;;;;;;;;6230061;28;20413;-70
2022/03/23 05:52:41;;;;;;;42.58;20.90;;;;;;;;;;6227944;28;20165;-70
2022/03/23 05:55:43;;;;;;;30.65;18.95;;;;;;;;;;6229168;28;20046;-70
2022/03/23 05:58:45;;;;;;;37.00;19.75;;;;;;;;;;6228224;28;20596;-70
2022/03/23 06:01:47;;;;;;;38.78;21.30;;;;;;;;;;6227467;28;20132;-70
2022/03/23 06:04:48;;;;;;;38.30;21.08;;;;;;;;;;6227553;28;20124;-67
2022/03/23 06:07:50;;;;;;;34.85;19.52;;;;;;;;;;6228782;28;20127;-66
2022/03/23 06:10:53;;;;;;;39.40;20.98;;;;;;;;;;6224729;28;20180;-68
2022/03/23 06:13:54;;;;;;;33.08;20.95;;;;;;;;;;6226894;28;20608;-66
2022/03/23 06:16:56;;;;;;;41.58;20.90;;;;;;;;;;6227469;28;20125;-70
2022/03/23 06:19:57;;;;;;;41.80;20.75;;;;;;;;;;6227729;28;20046;-72
2022/03/23 06:22:59;;;;;;;39.30;20.80;;;;;;;;;;6226329;28;20184;-68
2022/03/23 06:26:04;;;;;;;34.95;20.35;;;;;;;;;;6225500;28;20128;-68
2022/03/23 06:29:06;;;;;;;43.10;21.27;;;;;;;;;;6225827;28;20429;-68
2022/03/23 06:32:08;;;;;;;40.00;21.52;;;;;;;;;;6225099;28;20057;-69
2022/03/23 06:35:10;;;;;;;40.30;22.15;;;;;;;;;;6225776;28;20099;-69
2022/03/23 06:38:12;;;;;;;43.58;21.98;;;;;;;;;;6224851;28;20129;-70
2022/03/23 06:41:15;;;;;;;39.67;23.55;;;;;;;;;;6223982;28;20474;-70
2022/03/23 06:44:17;;;;;;;41.20;22.77;;;;;;;;;;6224774;28;20115;-70
2022/03/23 06:47:18;;;;;;;36.85;23.23;;;;;;;;;;6226653;28;20053;-70
2022/03/23 06:50:20;;;;;;;36.53;22.15;;;;;;;;;;6225487;28;20509;-69
2022/03/23 06:53:21;;;;;;;43.70;24.42;;;;;;;;;;6226818;28;20132;-70
2022/03/23 06:56:24;;;;;;;42.20;23.25;;;;;;;;;;6225333;28;20143;-68
2022/03/23 06:59:26;;;;;;;46.17;23.42;;;;;;;;;;6225536;28;20129;-69
2022/03/23 07:02:28;;;;;;;45.90;23.63;;;;;;;;;;6224158;28;20049;-69
2022/03/23 07:05:29;;;;;;;39.15;24.08;;;;;;;;;;6226208;28;20133;-70
2022/03/23 07:11:51;;;;;;;44.53;24.65;;;;;;;;;;6226679;28;20517;-74
2022/03/23 07:14:53;;;;;;;47.85;25.30;;;;;;;;;;6224026;28;20204;-71
2022/03/23 07:17:55;;;;;;;44.55;25.52;;;;;;;;;;6224266;28;20136;-71
2022/03/23 07:20:56;;;;;;;43.08;25.48;;;;;;;;;;6223704;28;20132;-71
2022/03/23 07:23:58;;;;;;;42.45;26.48;;;;;;;;;;6222897;28;20128;-69
2022/03/23 07:27:01;;;;;;;41.63;25.98;;;;;;;;;;6221127;28;20500;-69
2022/03/23 07:30:02;;;;;;;46.20;26.55;;;;;;;;;;6222699;28;20049;-69
2022/03/23 07:33:04;;;;;;;45.80;25.48;;;;;;;;;;6223163;28;20540;-70
2022/03/23 07:36:06;;;;;;;43.10;27.52;;;;;;;;;;6223708;28;20168;-69
2022/03/23 07:39:08;;;;;;;44.55;26.90;;;;;;;;;;6223607;28;20042;-69
2022/03/23 07:42:11;;;;;;;42.90;27.52;;;;;;;;;;6223292;28;20140;-70
2022/03/23 07:45:13;;;;;;;49.05;28.92;;;;;;;;;;6223267;28;20440;-70
2022/03/23 07:48:16;;;;;;;42.30;28.15;;;;;;;;;;6226119;28;20433;-70
2022/03/23 07:51:17;;;;;;;49.20;30.05;;;;;;;;;;6225106;28;20046;-69
2022/03/23 07:54:19;;;;;;;48.10;29.75;;;;;;;;;;6221996;28;20066;-69
2022/03/23 07:57:22;;;;;;;51.42;30.88;;;;;;;;;;6224177;28;20088;-70
2022/03/23 08:00:23;;;;;;;47.23;30.10;;;;;;;;;;6223737;28;20129;-70
2022/03/23 08:03:25;;;;;;;48.55;31.17;;;;;;;;;;6225363;28;20714;-70
2022/03/23 08:06:27;;;;;;;46.42;31.30;;;;;;;;;;6225369;28;20137;-69
2022/03/23 08:09:28;;;;;;;44.17;29.45;;;;;;;;;;6225467;28;20141;-69
2022/03/23 08:12:31;;;;;;;48.13;29.88;;;;;;;;;;6223704;28;20191;-69
2022/03/23 08:15:33;;;;;;;48.22;31.40;;;;;;;;;;6224626;28;20509;-70
2022/03/23 08:18:34;;;;;;;47.95;32.22;;;;;;;;;;6222969;28;20468;-70
2022/03/23 08:21:36;;;;;;;52.60;32.42;;;;;;;;;;6222865;28;20065;-71
2022/03/23 08:24:37;;;;;;;45.53;32.38;;;;;;;;;;6221543;28;20114;-70
2022/03/23 08:27:40;;;;;;;50.15;33.40;;;;;;;;;;6222728;28;20157;-70
2022/03/23 08:30:43;;;;;;;46.97;33.97;;;;;;;;;;6222469;28;20120;-71
2022/03/23 08:33:44;;;;;;;51.00;33.97;;;;;;;;;;6223116;28;20073;-70
2022/03/23 08:36:46;;;;;;;54.58;33.83;;;;;;;;;;6222467;28;20560;-70
2022/03/23 08:39:47;;;;;;;51.45;33.85;;;;;;;;;;6222849;28;20111;-70
2022/03/23 08:42:50;;;;;;;52.78;35.00;;;;;;;;;;6219883;28;20525;-70
2022/03/23 08:45:52;;;;;;;52.45;35.63;;;;;;;;;;6222412;28;20053;-69
2022/03/23 08:48:54;;;;;;;49.67;35.78;;;;;;;;;;6220008;28;20073;-69
2022/03/23 08:51:55;;;;;;;50.53;34.08;;;;;;;;;;6222143;28;20133;-70
2022/03/23 08:54:57;;;;;;;53.05;35.25;;;;;;;;;;6222193;28;20045;-69
2022/03/23 08:58:00;;;;;;;48.45;34.05;;;;;;;;;;6221924;28;20093;-69
2022/03/23 09:01:02;;;;;;;42.92;32.72;;;;;;;;;;6220139;28;20121;-69
2022/03/23 09:04:07;;;;;;;45.47;32.63;;;;;;;;;;6220172;28;20054;-71
2022/03/23 09:07:09;;;;;;;43.92;31.23;;;;;;;;;;6221811;28;20137;-71
2022/03/23 09:10:13;;;;;;;43.63;31.08;;;;;;;;;;6220409;28;20405;-70
2022/03/23 09:13:16;;;;;;;41.38;31.63;;;;;;;;;;6219745;28;20058;-71
2022/03/23 09:16:18;;;;;;;42.55;31.85;;;;;;;;;;6219245;28;20107;-70
2022/03/23 09:19:20;;;;;;;41.05;30.63;;;;;;;;;;6219774;28;20127;-70
2022/03/23 09:22:22;;;;;;;43.37;31.57;;;;;;;;;;6223756;28;20053;-71
2022/03/23 09:25:24;;;;;;;43.83;32.45;;;;;;;;;;6222369;28;20462;-72
2022/03/23 09:28:27;;;;;;;47.58;32.03;;;;;;;;;;6222936;28;20458;-71
2022/03/23 09:31:29;;;;;;;39.53;31.52;;;;;;;;;;6225352;28;20404;-71
2022/03/23 09:34:31;;;;;;;38.78;29.92;;;;;;;;;;6222715;28;20042;-71
2022/03/23 09:37:52;;;;;;;44.53;29.65;;;;;;;;;;6223003;28;20053;-70
2022/03/23 09:40:54;;;;;;;34.90;27.45;;;;;;;;;;6221228;28;20073;-70
2022/03/23 09:43:57;;;;;;;38.85;29.35;;;;;;;;;;6222648;28;20129;-69
2022/03/23 09:46:58;;;;;;;35.78;27.90;;;;;;;;;;6221807;28;20045;-70
2022/03/23 09:50:00;;;;;;;33.55;28.70;;;;;;;;;;6221895;28;20141;-70
2022/03/23 09:53:02;;;;;;;39.28;29.17;;;;;;;;;;6221557;28;20508;-69
2022/03/23 09:56:04;;;;;;;30.83;25.58;;;;;;;;;;6219449;28;20103;-71
2022/03/23 09:59:07;;;;;;;33.38;27.30;;;;;;;;;;6220745;28;20058;-70
2022/03/23 10:02:41;;;;;;;36.30;27.42;;;;;;;;;;6220278;28;20508;-70
2022/03/23 10:06:02;;;;;;;32.10;26.88;;;;;;;;;;6217472;28;20111;-69
2022/03/23 10:09:12;;;;;;;30.73;26.23;;;;;;;;;;6219020;28;20156;-69
2022/03/23 10:12:51;;;;;;;30.60;26.67;;;;;;;;;;6218808;28;20077;-69
2022/03/23 10:16:41;;;;;;;35.00;26.42;;;;;;;;;;6218400;28;20050;-69
2022/03/23 10:19:43;;;;;;;32.55;25.55;;;;;;;;;;6223796;28;20513;-69
2022/03/23 10:22:46;;;;;;;33.85;26.02;;;;;;;;;;6222882;28;20050;-69
2022/03/23 10:25:48;;;;;;;30.27;25.58;;;;;;;;;;6223206;28;20045;-69
2022/03/23 10:28:49;;;;;;;32.35;25.85;;;;;;;;;;6223536;28;20129;-69
2022/03/23 10:32:03;;;;;;;31.48;26.05;;;;;;;;;;6224368;28;20135;-68
2022/03/23 10:35:10;;;;;;;29.58;25.45;;;;;;;;;;6223304;28;20128;-70
2022/03/23 10:38:12;;;;;;;29.45;25.67;;;;;;;;;;6223823;28;20045;-69
2022/03/23 10:41:25;;;;;;;31.45;25.27;;;;;;;;;;6223784;28;20057;-68
2022/03/23 10:44:27;;;;;;;32.70;25.05;;;;;;;;;;6222130;28;20127;-68
2022/03/23 10:47:32;;;;;;;27.38;23.58;;;;;;;;;;6224434;28;20046;-69
2022/03/23 10:50:34;;;;;;;31.95;24.45;;;;;;;;;;6222988;28;20354;-69
2022/03/23 10:53:38;;;;;;;35.77;23.73;;;;;;;;;;6223580;28;20181;-69
2022/03/23 10:56:40;;;;;;;31.75;24.58;;;;;;;;;;6222312;28;21181;-69
2022/03/23 10:59:46;;;;;;;28.43;23.30;;;;;;;;;;6223506;28;20049;-69
2022/03/23 11:02:49;;;;;;;27.88;22.67;;;;;;;;;;6222491;28;20514;-70
2022/03/23 11:05:51;;;;;;;24.75;21.77;;;;;;;;;;6222208;28;20046;-71
2022/03/23 11:08:52;;;;;;;26.80;23.80;;;;;;;;;;6222518;28;20103;-70
2022/03/23 11:18:36;;;;;;;28.45;22.48;;;;;;;;;;6221635;28;20045;-70
2022/03/23 11:22:00;;;;;;;138.00;109.63;;;;;;;;;;6220513;28;20046;-71
2022/03/23 11:25:03;;;;;;;60.47;50.47;;;;;;;;;;6220208;28;20045;-70
2022/03/23 11:28:05;;;;;;;28.38;23.80;;;;;;;;;;6220605;28;20050;-69
2022/03/23 11:31:08;;;;;;;29.48;26.48;;;;;;;;;;6220799;28;20080;-70
2022/03/23 11:34:11;;;;;;;29.80;26.45;;;;;;;;;;6220363;28;20061;-69
2022/03/23 11:37:13;;;;;;;24.67;19.90;;;;;;;;;;6221229;28;20489;-69
2022/03/23 11:40:15;;;;;;;51.38;38.47;;;;;;;;;;6220205;28;20057;-69
2022/03/23 11:43:17;;;;;;;23.88;20.02;;;;;;;;;;6220967;28;20052;-68
2022/03/23 11:46:23;;;;;;;37.78;33.95;;;;;;;;;;6220081;28;20136;-68
2022/03/23 11:49:33;;;;;;;23.88;21.17;;;;;;;;;;6220571;28;20050;-64
2022/03/23 11:52:40;;;;;;;19.13;14.20;;;;;;;;;;6220931;28;20125;-69
2022/03/23 11:55:50;;;;;;;17.42;15.52;;;;;;;;;;6221041;28;20050;-70
2022/03/23 11:58:52;;;;;;;16.85;15.13;;;;;;;;;;6218832;28;20049;-71
2022/03/23 12:01:55;;;;;;;20.02;15.18;;;;;;;;;;6220853;28;20409;-69
2022/03/23 12:05:25;;;;;;;17.15;15.40;;;;;;;;;;6219591;28;20232;-71
2022/03/23 12:08:49;;;;;;;18.48;15.48;;;;;;;;;;6218480;28;20046;-70
2022/03/23 12:11:51;;;;;;;18.40;15.77;;;;;;;;;;6220797;28;20576;-70
2022/03/23 12:15:25;;;;;;;18.63;13.95;;;;;;;;;;6219942;28;20053;-70
2022/03/23 12:18:40;;;;;;;15.45;13.80;;;;;;;;;;6218748;28;20048;-70
2022/03/23 12:21:49;;;;;;;17.95;13.60;;;;;;;;;;6218136;28;20145;-70
2022/03/23 12:24:58;;;;;;;17.65;14.73;;;;;;;;;;6216918;28;20508;-70
2022/03/23 12:28:09;;;;;;;20.52;14.95;;;;;;;;;;6218561;28;20050;-69
2022/03/23 12:31:14;;;;;;;18.23;15.70;;;;;;;;;;6217586;28;20061;-69
2022/03/23 12:34:19;;;;;;;17.63;14.38;;;;;;;;;;6216348;28;20223;-68
2022/03/23 12:37:22;;;;;;;15.40;13.82;;;;;;;;;;6218986;28;20045;-68
2022/03/23 12:40:24;;;;;;;15.27;13.68;;;;;;;;;;6217112;28;20046;-68
2022/03/23 12:43:37;;;;;;;16.45;14.07;;;;;;;;;;6219263;28;20492;-68
2022/03/23 12:46:44;;;;;;;16.20;14.50;;;;;;;;;;6218095;28;20046;-68
2022/03/23 12:59:50;;;;;;;17.88;14.43;;;;;;;;;;6218277;28;20141;-68
2022/03/23 13:03:25;;;;;;;15.75;14.15;;;;;;;;;;6219378;28;20139;-69
2022/03/23 13:06:36;;;;;;;15.88;14.38;;;;;;;;;;6218876;28;20076;-69
2022/03/23 13:09:38;;;;;;;15.02;13.43;;;;;;;;;;6220384;28;20397;-68
2022/03/23 13:12:41;;;;;;;15.50;13.15;;;;;;;;;;6221418;28;20049;-68
2022/03/23 13:15:43;;;;;;;17.15;13.52;;;;;;;;;;6220482;28;20060;-66
2022/03/23 13:18:45;;;;;;;15.88;13.02;;;;;;;;;;6220568;28;20196;-69
2022/03/23 13:21:47;;;;;;;14.80;12.23;;;;;;;;;;6216307;28;20049;-68
2022/03/23 13:25:01;;;;;;;15.38;12.98;;;;;;;;;;6218372;28;20042;-67
2022/03/23 13:28:12;;;;;;;26.65;21.90;;;;;;;;;;6220178;28;20073;-65
2022/03/23 13:31:16;;;;;;;16.02;14.32;;;;;;;;;;6219819;28;20046;-65
2022/03/23 13:34:19;;;;;;;17.58;15.73;;;;;;;;;;6219279;28;21972;-67
2022/03/23 13:37:20;;;;;;;;;;;;;;;;;;6219260;28;20405;-68
2022/03/23 13:40:27;;;;;;;16.52;12.25;;;;;;;;;;6219860;28;19922;-68
2022/03/23 13:43:32;;;;;;;16.33;12.52;;;;;;;;;;6219467;28;20121;-66
2022/03/23 13:46:34;;;;;;;15.75;12.18;;;;;;;;;;6219214;28;20046;-66
2022/03/23 13:49:42;;;;;;;14.73;12.13;;;;;;;;;;6217468;28;20042;-67
2022/03/23 13:52:43;;;;;;;14.95;11.40;;;;;;;;;;6218304;28;20046;-67
2022/03/23 13:55:49;;;;;;;15.00;11.93;;;;;;;;;;6224908;28;20041;-67
2022/03/23 13:58:51;;;;;;;13.80;12.15;;;;;;;;;;6222108;28;20048;-68
2022/03/23 14:01:52;;;;;;;12.85;11.27;;;;;;;;;;6193446;28;20061;-67
2022/03/23 14:04:54;;;;;;;12.52;11.30;;;;;;;;;;6222623;28;20045;-68
2022/03/23 14:07:57;;;;;;;15.60;10.87;;;;;;;;;;6223693;28;20196;-67
2022/03/23 14:11:00;;;;;;;13.05;10.90;;;;;;;;;;6222906;28;20442;-68
2022/03/23 14:14:01;;;;;;;11.68;10.38;;;;;;;;;;6197502;28;20042;-68
2022/03/23 14:17:10;;;;;;;12.50;11.03;;;;;;;;;;6225003;28;20101;-68
2022/03/23 14:20:12;;;;;;;12.10;10.88;;;;;;;;;;6223827;28;20053;-69
2022/03/23 14:23:13;;;;;;;;;;;;;;;;;;6223267;28;20152;-68
2022/03/23 14:26:32;;;;;;;11.88;10.68;;;;;;;;;;6223751;28;19921;-68
2022/03/23 14:29:34;;;;;;;17.50;10.77;;;;;;;;;;6222193;28;20139;-66
2022/03/23 14:32:37;;;;;;;17.00;11.03;;;;;;;;;;6223300;28;20466;-67
2022/03/23 14:35:40;;;;;;;14.93;11.32;;;;;;;;;;6223356;28;20049;-67
2022/03/23 14:38:43;;;;;;;12.80;10.80;;;;;;;;;;6220309;28;20052;-68
2022/03/23 14:41:56;;;;;;;15.13;10.52;;;;;;;;;;6222660;28;20046;-68
2022/03/23 14:44:59;;;;;;;13.30;10.43;;;;;;;;;;6222858;28;20045;-68
2022/03/23 14:48:02;;;;;;;14.48;10.35;;;;;;;;;;6222585;28;20053;-70
2022/03/23 14:51:03;;;;;;;13.65;10.65;;;;;;;;;;6223136;28;20128;-73
2022/03/23 14:54:09;;;;;;;72.68;49.75;;;;;;;;;;6222934;28;20054;-70
2022/03/23 14:57:13;;;;;;;64.50;40.03;;;;;;;;;;6221409;28;20053;-70
2022/03/23 15:00:16;;;;;;;28.85;18.20;;;;;;;;;;6222529;28;20050;-72
2022/03/23 15:03:18;;;;;;;44.28;31.45;;;;;;;;;;6223417;28;20477;-70
2022/03/23 15:13:17;;;;;;;11.48;9.80;;;;;;;;;;6215716;28;20442;-71
2022/03/23 15:16:19;;;;;;;14.57;9.93;;;;;;;;;;6216543;28;20050;-70
2022/03/23 15:19:20;;;;;;;15.77;10.43;;;;;;;;;;6218210;28;20073;-69
2022/03/23 15:22:22;;;;;;;13.13;9.83;;;;;;;;;;6219026;28;20128;-70
2022/03/23 15:25:23;;;;;;;10.03;8.93;;;;;;;;;;6220690;28;20495;-71
2022/03/23 15:28:26;;;;;;;14.48;9.23;;;;;;;;;;6218927;28;20139;-72
2022/03/23 15:31:28;;;;;;;11.57;9.68;;;;;;;;;;6218116;28;20080;-71
2022/03/23 15:34:30;;;;;;;10.63;8.80;;;;;;;;;;6219959;28;20052;-72
2022/03/23 15:37:31;;;;;;;9.77;8.15;;;;;;;;;;6220001;28;20065;-72
2022/03/23 15:40:33;;;;;;;8.88;7.97;;;;;;;;;;6219925;28;20128;-70
2022/03/23 15:43:36;;;;;;;12.82;9.27;;;;;;;;;;6214451;28;20171;-71
2022/03/23 15:46:39;;;;;;;20.92;8.15;;;;;;;;;;6214759;28;20049;-70
2022/03/23 15:49:44;;;;;;;13.27;8.38;;;;;;;;;;6218116;28;20358;-67
2022/03/23 15:52:45;;;;;;;15.15;8.82;;;;;;;;;;6218284;28;20049;-69
2022/03/23 15:55:47;;;;;;;10.53;8.47;;;;;;;;;;6218718;28;20533;-69
2022/03/23 15:58:50;;;;;;;15.23;9.20;;;;;;;;;;6219880;28;20603;-69
2022/03/23 16:01:52;;;;;;;11.07;9.20;;;;;;;;;;6219575;28;20089;-69
2022/03/23 16:04:53;;;;;;;13.53;8.93;;;;;;;;;;6218611;28;20037;-71
2022/03/23 16:07:55;;;;;;;27.67;9.37;;;;;;;;;;6216949;28;20158;-70
2022/03/23 16:10:58;;;;;;;13.37;8.93;;;;;;;;;;6218048;28;20436;-70
2022/03/23 16:14:01;;;;;;;90.65;14.20;;;;;;;;;;6217557;28;20848;-70
2022/03/23 16:17:03;;;;;;;17.45;9.00;;;;;;;;;;6216513;28;20054;-70
2022/03/23 16:20:08;;;;;;;13.27;9.20;;;;;;;;;;6214516;28;20442;-69
2022/03/23 16:23:09;;;;;;;16.48;8.65;;;;;;;;;;6218060;28;20235;-68
2022/03/23 16:26:15;;;;;;;12.37;8.70;;;;;;;;;;6217516;28;20057;-69
2022/03/23 16:29:17;;;;;;;13.30;8.45;;;;;;;;;;6218213;28;20205;-69
2022/03/23 16:32:20;;;;;;;8.85;8.05;;;;;;;;;;6214064;28;20156;-69
2022/03/23 16:35:23;;;;;;;18.95;8.38;;;;;;;;;;6218300;28;20056;-67
2022/03/23 16:38:25;;;;;;;15.45;8.23;;;;;;;;;;6217115;28;20054;-69
2022/03/23 16:41:36;;;;;;;19.88;9.13;;;;;;;;;;6215257;28;20555;-68
2022/03/23 16:44:39;;;;;;;11.13;8.25;;;;;;;;;;6218691;28;20062;-68
2022/03/23 16:47:41;;;;;;;10.05;7.90;;;;;;;;;;6219052;28;20180;-69
2022/03/23 16:50:43;;;;;;;17.35;9.52;;;;;;;;;;6219671;28;20133;-69
2022/03/23 16:53:44;;;;;;;12.48;9.27;;;;;;;;;;6214118;28;20623;-69
2022/03/23 16:56:46;;;;;;;15.02;8.82;;;;;;;;;;6217903;28;20046;-69
2022/03/23 16:59:49;;;;;;;13.73;9.40;;;;;;;;;;6216133;28;20095;-70
2022/03/23 17:12:56;;;;;;;13.75;8.77;;;;;;;;;;6170790;28;20061;-68
2022/03/23 17:16:00;;;;;;;15.98;8.77;;;;;;;;;;6219443;28;20056;-69
2022/03/23 17:19:02;;;;;;;12.63;8.13;;;;;;;;;;6219178;28;20185;-70
2022/03/23 17:22:06;;;;;;;14.17;9.27;;;;;;;;;;6219410;28;20054;-71
2022/03/23 17:25:09;;;;;;;15.10;10.00;;;;;;;;;;6219078;28;20472;-70
2022/03/23 17:28:10;;;;;;;14.60;9.18;;;;;;;;;;6223017;28;20133;-70
2022/03/23 17:31:13;;;;;;;12.65;8.05;;;;;;;;;;6224315;28;20125;-69
2022/03/23 17:34:15;;;;;;;11.95;7.65;;;;;;;;;;6221977;28;20066;-69
2022/03/23 17:37:17;;;;;;;12.35;8.30;;;;;;;;;;6223593;28;20083;-68
2022/03/23 17:40:18;;;;;;;11.00;8.35;;;;;;;;;;6223163;28;20543;-70
2022/03/23 17:43:20;;;;;;;11.88;8.20;;;;;;;;;;6223257;28;20561;-69
2022/03/23 17:46:25;;;;;;;12.80;7.68;;;;;;;;;;6222120;28;20212;-69
2022/03/23 17:49:26;;;;;;;12.65;9.05;;;;;;;;;;6223043;28;20161;-69
2022/03/23 17:52:28;;;;;;;12.68;9.52;;;;;;;;;;6222137;28;20129;-68
2022/03/23 17:55:30;;;;;;;13.07;8.00;;;;;;;;;;6223580;28;20332;-69
2022/03/23 17:58:31;;;;;;;16.45;9.77;;;;;;;;;;6223452;28;20520;-70
2022/03/23 18:01:34;;;;;;;12.02;8.38;;;;;;;;;;6224493;28;20172;-70
2022/03/23 18:04:36;;;;;;;11.30;8.88;;;;;;;;;;6223949;28;20119;-68
2022/03/23 18:07:38;;;;;;;11.35;7.65;;;;;;;;;;6223802;28;20041;-68
2022/03/23 18:10:40;;;;;;;14.43;9.50;;;;;;;;;;6222355;28;20050;-72
2022/03/23 18:13:42;;;;;;;12.50;8.25;;;;;;;;;;6221806;28;20596;-69
2022/03/23 18:16:46;;;;;;;12.27;8.63;;;;;;;;;;6222794;28;20050;-69
2022/03/23 18:19:47;;;;;;;15.40;8.55;;;;;;;;;;6221314;28;20065;-68
2022/03/23 18:22:49;;;;;;;15.50;9.63;;;;;;;;;;6223837;28;20077;-68
2022/03/23 18:25:51;;;;;;;11.98;8.75;;;;;;;;;;6220634;28;20057;-70
2022/03/23 18:28:53;;;;;;;18.95;9.05;;;;;;;;;;6226657;28;20081;-70
2022/03/23 18:31:56;;;;;;;14.82;8.98;;;;;;;;;;6225752;28;20100;-68
2022/03/23 18:34:57;;;;;;;23.67;9.37;;;;;;;;;;6224298;28;20066;-69
2022/03/23 18:37:59;;;;;;;12.38;8.98;;;;;;;;;;6220058;28;20102;-69